Terminal Aerodrome Forecast
Issued by NWS

Home | Current Version | Previous Version | Text Only | Print | Product List | Glossary Off
Versions: 1 2 3 4 5 6 7 8 9 10 11 12 13

000
FTUS43 KPAH 251859 AAA
TAFCGI
TAF AMD
KCGI 251859Z 2519/2618 VRB05KT P6SM VCTS SCT040CB BKN150
      TEMPO 2519/2521 27015G25KT 3SM +TSRA BKN030CB
     FM260000 19006KT P6SM OVC150
     FM260300 VRB03KT P6SM BKN150=

USA.gov is the U.S. government's official web portal to all federal, state and local government web resources and services.